Time;durP1;ratioP1;P1;durP2;ratioP2;P2;SDS_P1;SDS_P2;PMS_P1;PMS_P2;Temp;Humidity;BMP_temperature;BMP_pressure;BME280_temperature;BME280_humidity;BME280_pressure;Samples;Min_cycle;Max_cycle;Signal;HPM_P1;HPM_P2
2021/03/22 00:00:56;;;;;;;;;;;4.30;99.90;;;;;;5115082;28;20019;-69
2021/03/22 00:03:23;;;;;;;;;;;4.30;99.90;;;;;;5114433;28;19923;-69
2021/03/22 00:05:49;;;;;;;;;;;4.40;99.90;;;;;;5115459;28;19928;-69
2021/03/22 00:08:16;;;;;;;;;;;4.30;99.90;;;;;;5115479;28;19924;-69
2021/03/22 00:10:43;;;;;;;;;;;4.40;99.90;;;;;;5115053;28;19924;-69
2021/03/22 00:13:09;;;;;;;;;;;4.40;99.90;;;;;;5116134;28;19928;-69
2021/03/22 00:15:36;;;;;;;;;;;4.40;99.90;;;;;;5115054;28;20070;-69
2021/03/22 00:18:04;;;;;;;;;;;4.30;99.90;;;;;;5115070;28;20299;-70
2021/03/22 00:20:30;;;;;;;;;;;4.30;99.90;;;;;;5114857;28;19924;-69
2021/03/22 00:22:56;;;;;;;;;;;4.40;99.90;;;;;;5114932;28;19932;-69
2021/03/22 00:25:22;;;;;;;;;;;4.40;99.90;;;;;;5115047;28;19928;-69
2021/03/22 00:27:48;;;;;;;;;;;4.40;99.90;;;;;;5114777;28;19924;-69
2021/03/22 00:30:17;;;;;;;;;;;4.30;99.90;;;;;;5114817;28;19957;-69
2021/03/22 00:32:43;;;;;;;;;;;4.30;99.90;;;;;;5114467;28;20300;-69
2021/03/22 00:35:10;;;;;;;;;;;4.30;99.90;;;;;;5114737;28;19924;-69
2021/03/22 00:37:36;;;;;;;;;;;4.30;99.90;;;;;;5115113;28;19924;-69
2021/03/22 00:40:03;;;;;;;;;;;4.30;99.90;;;;;;5114610;28;19923;-69
2021/03/22 00:42:29;;;;;;;;;;;4.30;99.90;;;;;;5114893;28;19931;-69
2021/03/22 00:44:55;;;;;;;;;;;4.30;99.90;;;;;;5116517;28;19931;-70
2021/03/22 00:47:21;;;;;;;;;;;4.30;99.90;;;;;;5117721;28;19928;-70
2021/03/22 00:49:47;;;;;;;;;;;4.30;99.90;;;;;;5115405;28;19935;-69
2021/03/22 00:52:14;;;;;;;;;;;4.30;99.90;;;;;;5114656;28;19924;-70
2021/03/22 00:54:40;;;;;;;;;;;4.30;99.90;;;;;;5116223;28;20269;-70
2021/03/22 00:57:07;;;;;;;;;;;4.30;99.90;;;;;;5116068;28;19980;-70
2021/03/22 00:59:33;;;;;;;;;;;4.30;99.90;;;;;;5114633;28;19924;-70
2021/03/22 01:01:59;;;;;;;;;;;4.20;99.90;;;;;;5113791;28;19931;-69
2021/03/22 01:04:25;;;;;;;;;;;4.20;99.90;;;;;;5114246;28;19946;-69
2021/03/22 01:06:51;;;;;;;;;;;4.20;99.90;;;;;;5114255;28;20321;-70
2021/03/22 01:09:18;;;;;;;;;;;4.10;99.90;;;;;;5114026;28;19924;-70
2021/03/22 01:11:44;;;;;;;;;;;4.10;99.90;;;;;;5113446;28;19930;-69
2021/03/22 01:14:11;;;;;;;;;;;4.10;99.90;;;;;;5113720;28;19923;-70
2021/03/22 01:16:37;;;;;;;;;;;4.00;99.90;;;;;;5114276;28;19982;-70
2021/03/22 01:19:06;;;;;;;;;;;4.00;99.90;;;;;;5114083;28;19931;-70
2021/03/22 01:21:33;;;;;;;;;;;3.90;99.90;;;;;;5113340;28;19924;-70
2021/03/22 01:24:00;;;;;;;;;;;3.90;99.90;;;;;;5113627;28;19928;-69
2021/03/22 01:26:29;;;;;;;;;;;3.90;99.90;;;;;;5113700;28;19928;-69
2021/03/22 01:28:55;;;;;;;;;;;3.90;99.90;;;;;;5113587;28;19931;-69
2021/03/22 01:31:21;;;;;;;;;;;3.90;99.90;;;;;;5113089;28;20411;-69
2021/03/22 01:33:50;;;;;;;;;;;3.90;99.90;;;;;;5113718;28;20265;-69
2021/03/22 01:36:18;;;;;;;;;;;4.00;99.90;;;;;;5113571;28;20364;-70
2021/03/22 01:38:45;;;;;;;;;;;4.00;99.90;;;;;;5113462;28;19930;-69
2021/03/22 01:41:17;;;;;;;;;;;4.00;99.90;;;;;;5113026;28;20446;-70
2021/03/22 01:44:00;;;;;;;;;;;4.00;99.90;;;;;;5113516;28;20288;-69
2021/03/22 01:46:26;;;;;;;;;;;4.00;99.90;;;;;;5113653;28;19928;-70
2021/03/22 01:48:53;;;;;;;;;;;4.00;99.90;;;;;;5113087;28;19923;-69
2021/03/22 01:51:19;;;;;;;;;;;4.10;99.90;;;;;;5112903;28;19924;-70
2021/03/22 01:53:45;;;;;;;;;;;4.00;99.90;;;;;;5113313;28;20403;-70
2021/03/22 01:56:13;;;;;;;;;;;4.10;99.90;;;;;;5112969;28;19924;-70
2021/03/22 01:58:39;;;;;;;;;;;4.10;99.90;;;;;;5113034;28;20392;-70
2021/03/22 02:01:06;;;;;;;;;;;4.10;99.90;;;;;;5112509;28;20425;-70
2021/03/22 02:03:32;;;;;;;;;;;4.10;99.90;;;;;;5113330;28;19923;-69
2021/03/22 02:05:58;;;;;;;;;;;4.10;99.90;;;;;;5112681;28;20014;-69
2021/03/22 02:08:27;;;;;;;;;;;4.20;99.90;;;;;;5112823;28;19927;-70
2021/03/22 02:10:53;;;;;;;;;;;4.20;99.90;;;;;;5112770;28;19970;-70
2021/03/22 02:13:22;;;;;;;;;;;4.20;99.90;;;;;;5113168;28;19977;-70
2021/03/22 02:15:49;;;;;;;;;;;4.20;99.90;;;;;;5113026;28;19923;-69
2021/03/22 02:18:20;;;;;;;;;;;4.20;99.90;;;;;;5112721;28;19931;-69
2021/03/22 02:21:01;;;;;;;;;;;4.20;99.90;;;;;;5112407;28;19928;-70
2021/03/22 02:23:42;;;;;;;;;;;4.20;99.90;;;;;;5112986;28;19927;-69
2021/03/22 02:26:14;;;;;;;;;;;4.20;99.90;;;;;;5109824;28;20449;-70
2021/03/22 02:28:55;;;;;;;;;;;4.10;99.90;;;;;;5112599;28;20372;-69
2021/03/22 02:31:32;;;;;;;;;;;4.10;99.90;;;;;;5110057;28;20011;-70
2021/03/22 02:34:11;;;;;;;;;;;4.10;99.90;;;;;;5112941;28;19969;-70
2021/03/22 02:36:42;;;;;;;;;;;4.20;99.90;;;;;;5112786;28;20586;-70
2021/03/22 02:39:09;;;;;;;;;;;4.20;99.90;;;;;;5112959;28;19924;-70
2021/03/22 02:41:38;;;;;;;;;;;4.20;99.90;;;;;;5112048;28;19923;-70
2021/03/22 02:44:05;;;;;;;;;;;4.20;99.90;;;;;;5113014;28;19996;-69
2021/03/22 02:46:32;;;;;;;;;;;4.20;99.90;;;;;;5112468;28;20300;-69
2021/03/22 02:48:58;;;;;;;;;;;4.10;99.90;;;;;;5112694;28;19924;-69
2021/03/22 02:51:32;;;;;;;;;;;4.10;99.90;;;;;;5112147;28;20368;-69
2021/03/22 02:54:03;;;;;;;;;;;4.10;99.90;;;;;;5112494;28;19948;-69
2021/03/22 02:56:35;;;;;;;;;;;4.10;99.90;;;;;;5112267;28;20436;-69
2021/03/22 02:59:04;;;;;;;;;;;4.10;99.90;;;;;;5112521;28;19923;-70
2021/03/22 03:01:33;;;;;;;;;;;4.10;99.90;;;;;;5112154;28;19924;-69
2021/03/22 03:04:00;;;;;;;;;;;4.10;99.90;;;;;;5112258;28;20354;-69
2021/03/22 03:06:42;;;;;;;;;;;4.10;99.90;;;;;;5112390;28;20296;-70
2021/03/22 03:09:08;;;;;;;;;;;4.10;99.90;;;;;;5112445;28;19980;-70
2021/03/22 03:11:35;;;;;;;;;;;4.10;99.90;;;;;;5112173;28;19924;-70
2021/03/22 03:14:01;;;;;;;;;;;4.10;99.90;;;;;;5112506;28;19931;-69
2021/03/22 03:16:27;;;;;;;;;;;4.10;99.90;;;;;;5112141;28;19927;-69
2021/03/22 03:18:53;;;;;;;;;;;4.10;99.90;;;;;;5112209;28;19980;-69
2021/03/22 03:21:19;;;;;;;;;;;4.10;99.90;;;;;;5111749;28;19924;-69
2021/03/22 03:23:46;;;;;;;;;;;4.00;99.90;;;;;;5112522;28;19924;-69
2021/03/22 03:26:12;;;;;;;;;;;4.00;99.90;;;;;;5112268;28;19923;-70
2021/03/22 03:28:38;;;;;;;;;;;4.10;99.90;;;;;;5112419;28;19924;-70
2021/03/22 03:31:04;;;;;;;;;;;4.10;99.90;;;;;;5112000;28;19924;-70
2021/03/22 03:33:30;;;;;;;;;;;4.00;99.90;;;;;;5112135;28;19932;-70
2021/03/22 03:35:57;;;;;;;;;;;4.00;99.90;;;;;;5112046;28;19923;-69
2021/03/22 03:38:23;;;;;;;;;;;4.00;99.90;;;;;;5115005;28;20380;-69
2021/03/22 03:40:50;;;;;;;;;;;4.00;99.90;;;;;;5115402;28;19946;-69
2021/03/22 03:43:17;;;;;;;;;;;4.00;99.90;;;;;;5115574;28;20051;-69
2021/03/22 03:45:44;;;;;;;;;;;4.00;99.90;;;;;;5115846;28;19928;-69
2021/03/22 03:48:12;;;;;;;;;;;4.00;99.90;;;;;;5115701;28;19977;-69
2021/03/22 03:50:38;;;;;;;;;;;4.00;99.90;;;;;;5114864;28;19928;-69
2021/03/22 03:53:05;;;;;;;;;;;3.90;99.90;;;;;;5115592;28;20395;-69
2021/03/22 03:55:31;;;;;;;;;;;3.90;99.90;;;;;;5115509;28;19924;-69
2021/03/22 03:57:58;;;;;;;;;;;3.90;99.90;;;;;;5115852;28;19924;-69
2021/03/22 04:00:26;;;;;;;;;;;3.90;99.90;;;;;;5115332;28;19923;-69
2021/03/22 04:02:53;;;;;;;;;;;3.90;99.90;;;;;;5115367;28;20341;-69
2021/03/22 04:05:20;;;;;;;;;;;3.90;99.90;;;;;;5115627;28;19928;-69
2021/03/22 04:07:46;;;;;;;;;;;3.90;99.90;;;;;;5115084;28;20418;-69
2021/03/22 04:10:12;;;;;;;;;;;3.90;99.90;;;;;;5115621;28;19927;-69
2021/03/22 04:12:38;;;;;;;;;;;3.90;99.90;;;;;;5115071;28;19931;-69
2021/03/22 04:15:07;;;;;;;;;;;3.90;99.90;;;;;;5115163;28;19930;-69
2021/03/22 04:17:33;;;;;;;;;;;3.90;99.90;;;;;;5114863;28;19973;-69
2021/03/22 04:19:59;;;;;;;;;;;3.80;99.90;;;;;;5115103;28;20638;-69
2021/03/22 04:22:25;;;;;;;;;;;3.80;99.90;;;;;;5114842;28;20299;-69
2021/03/22 04:24:51;;;;;;;;;;;3.80;99.90;;;;;;5115383;28;20285;-69
2021/03/22 04:27:17;;;;;;;;;;;3.80;99.90;;;;;;5115168;28;20285;-69
2021/03/22 04:29:43;;;;;;;;;;;3.80;99.90;;;;;;5114981;28;20295;-69
2021/03/22 04:32:10;;;;;;;;;;;3.80;99.90;;;;;;5114443;28;20341;-69
2021/03/22 04:34:36;;;;;;;;;;;3.80;99.90;;;;;;5114935;28;20125;-69
2021/03/22 04:37:02;;;;;;;;;;;3.80;99.90;;;;;;5114824;28;19924;-69
2021/03/22 04:39:28;;;;;;;;;;;3.80;99.90;;;;;;5115736;28;19923;-70
2021/03/22 04:41:54;;;;;;;;;;;3.80;99.90;;;;;;5117180;28;20388;-69
2021/03/22 04:44:20;;;;;;;;;;;3.80;99.90;;;;;;5116411;28;19931;-69
2021/03/22 04:46:46;;;;;;;;;;;3.80;99.90;;;;;;5114555;28;19928;-69
2021/03/22 04:49:13;;;;;;;;;;;3.80;99.90;;;;;;5114883;28;19923;-69
2021/03/22 04:51:39;;;;;;;;;;;3.70;99.90;;;;;;5114262;28;19935;-69
2021/03/22 04:54:05;;;;;;;;;;;3.70;99.90;;;;;;5114745;28;19931;-69
2021/03/22 04:56:31;;;;;;;;;;;3.70;99.90;;;;;;5114442;28;19924;-69
2021/03/22 04:58:57;;;;;;;;;;;3.80;99.90;;;;;;5114208;28;19928;-69
2021/03/22 05:01:23;;;;;;;;;;;3.80;99.90;;;;;;5113571;28;19973;-69
2021/03/22 05:03:49;;;;;;;;;;;3.80;99.90;;;;;;5113985;28;19924;-69
2021/03/22 05:06:16;;;;;;;;;;;3.70;99.90;;;;;;5114356;28;19924;-69
2021/03/22 05:08:42;;;;;;;;;;;3.60;99.90;;;;;;5114243;28;19923;-69
2021/03/22 05:11:08;;;;;;;;;;;3.60;99.90;;;;;;5113578;28;19927;-69
2021/03/22 05:13:34;;;;;;;;;;;3.70;99.90;;;;;;5111858;28;20022;-69
2021/03/22 05:16:00;;;;;;;;;;;3.70;99.90;;;;;;5113324;28;20399;-68
2021/03/22 05:18:27;;;;;;;;;;;3.60;99.90;;;;;;5113941;28;19931;-69
2021/03/22 05:20:55;;;;;;;;;;;3.70;99.90;;;;;;5113501;28;19978;-66
2021/03/22 05:23:23;;;;;;;;;;;3.70;99.90;;;;;;5112846;28;19924;-68
2021/03/22 05:25:49;;;;;;;;;;;3.70;99.90;;;;;;5113444;28;19923;-68
2021/03/22 05:28:15;;;;;;;;;;;3.60;1.00;;;;;;5113326;28;20395;-69
2021/03/22 05:30:41;;;;;;;;;;;3.60;1.00;;;;;;5113418;28;19935;-68
2021/03/22 05:33:09;;;;;;;;;;;3.60;1.00;;;;;;5113264;28;19931;-69
2021/03/22 05:35:36;;;;;;;;;;;3.60;1.00;;;;;;5113464;28;19928;-69
2021/03/22 05:38:03;;;;;;;;;;;3.70;1.00;;;;;;5113297;28;19924;-67
2021/03/22 05:40:32;;;;;;;;;;;3.70;1.00;;;;;;5113122;28;19924;-67
2021/03/22 05:43:06;;;;;;;;;;;3.70;1.00;;;;;;5112722;28;20392;-67
2021/03/22 05:45:41;;;;;;;;;;;3.70;1.00;;;;;;5112818;28;19977;-67
2021/03/22 05:48:15;;;;;;;;;;;3.70;1.00;;;;;;5113289;28;19927;-67
2021/03/22 05:50:46;;;;;;;;;;;3.70;1.00;;;;;;5112867;28;19923;-67
2021/03/22 05:53:27;;;;;;;;;;;3.70;1.00;;;;;;5112954;28;20419;-69
2021/03/22 05:55:54;;;;;;;;;;;3.70;1.00;;;;;;5113050;28;19924;-68
2021/03/22 05:58:31;;;;;;;;;;;3.70;1.00;;;;;;5113249;28;19924;-68
2021/03/22 06:01:00;;;;;;;;;;;3.70;1.00;;;;;;5112177;28;19924;-68
2021/03/22 06:03:27;;;;;;;;;;;3.70;1.00;;;;;;5112829;28;19923;-67
2021/03/22 06:06:00;;;;;;;;;;;3.70;1.00;;;;;;5112919;28;19928;-69
2021/03/22 06:08:31;;;;;;;;;;;3.80;1.00;;;;;;5112947;28;19924;-69
2021/03/22 06:10:58;;;;;;;;;;;3.70;1.00;;;;;;5112812;28;19928;-68
2021/03/22 06:13:27;;;;;;;;;;;3.80;1.00;;;;;;5113005;28;20644;-68
2021/03/22 06:15:55;;;;;;;;;;;3.70;1.00;;;;;;5113110;28;19923;-68
2021/03/22 06:18:24;;;;;;;;;;;3.80;1.00;;;;;;5112959;28;20368;-67
2021/03/22 06:20:53;;;;;;;;;;;3.80;1.00;;;;;;5111697;28;21376;-69
2021/03/22 06:23:20;;;;;;;;;;;3.80;1.00;;;;;;5110875;28;20067;-70
2021/03/22 06:25:46;;;;;;;;;;;3.80;1.00;;;;;;5111841;28;19975;-70
2021/03/22 06:28:18;;;;;;;;;;;3.80;1.00;;;;;;5112381;28;19923;-70
2021/03/22 06:30:50;;;;;;;;;;;3.80;1.00;;;;;;5111934;28;19924;-70
2021/03/22 06:33:23;;;;;;;;;;;3.90;1.00;;;;;;5111628;28;19927;-68
2021/03/22 06:35:50;;;;;;;;;;;4.00;1.00;;;;;;5112196;28;20364;-66
2021/03/22 06:38:16;;;;;;;;;;;4.00;1.00;;;;;;5112018;28;19923;-66
2021/03/22 06:40:42;;;;;;;;;;;4.00;1.00;;;;;;5111852;28;19924;-66
2021/03/22 06:43:09;;;;;;;;;;;4.00;1.00;;;;;;5111450;28;19924;-66
2021/03/22 06:45:37;;;;;;;;;;;4.00;1.00;;;;;;5111928;28;20312;-66
2021/03/22 06:48:14;;;;;;;;;;;4.00;1.00;;;;;;5111960;28;19924;-67
2021/03/22 06:50:40;;;;;;;;;;;3.90;1.00;;;;;;5111994;28;20299;-66
2021/03/22 06:53:06;;;;;;;;;;;3.90;1.00;;;;;;5111639;28;19927;-66
2021/03/22 06:55:34;;;;;;;;;;;4.00;1.00;;;;;;5111759;28;19924;-67
2021/03/22 06:58:00;;;;;;;;;;;4.00;1.00;;;;;;5111665;28;19977;-67
2021/03/22 07:00:27;;;;;;;;;;;4.00;1.00;;;;;;5111783;28;19971;-67
2021/03/22 07:02:57;;;;;;;;;;;3.90;1.00;;;;;;5110978;28;19931;-67
2021/03/22 07:05:31;;;;;;;;;;;3.90;1.00;;;;;;5110812;28;19930;-67
2021/03/22 07:07:59;;;;;;;;;;;3.90;1.00;;;;;;5110731;28;19932;-66
2021/03/22 07:10:25;;;;;;;;;;;4.00;1.00;;;;;;5110474;28;19931;-67
2021/03/22 07:13:03;;;;;;;;;;;4.00;1.00;;;;;;5115445;28;19923;-68
2021/03/22 07:15:30;;;;;;;;;;;3.90;1.00;;;;;;5116109;28;19923;-67
2021/03/22 07:18:12;;;;;;;;;;;4.00;1.00;;;;;;5115928;27;20113;-66
2021/03/22 07:20:39;;;;;;;;;;;4.10;1.00;;;;;;5115491;28;20391;-67
2021/03/22 07:23:08;;;;;;;;;;;4.20;1.00;;;;;;5114910;28;19924;-67
2021/03/22 07:25:36;;;;;;;;;;;4.30;1.00;;;;;;5115480;28;19970;-67
2021/03/22 07:28:07;;;;;;;;;;;4.30;99.90;;;;;;5115654;28;19924;-68
2021/03/22 07:30:37;;;;;;;;;;;4.30;99.90;;;;;;5115583;28;20441;-67
2021/03/22 07:33:11;;;;;;;;;;;4.30;99.90;;;;;;5114998;28;19948;-68
2021/03/22 07:35:46;;;;;;;;;;;4.30;99.90;;;;;;5115065;28;20404;-68
2021/03/22 07:38:16;;;;;;;;;;;4.40;99.90;;;;;;5115507;28;20277;-67
2021/03/22 07:40:49;;;;;;;;;;;4.40;99.90;;;;;;5115430;28;19923;-69
2021/03/22 07:43:16;;;;;;;;;;;4.40;99.90;;;;;;5114862;28;20031;-69
2021/03/22 07:45:50;;;;;;;;;;;4.50;99.90;;;;;;5115212;27;20345;-69
2021/03/22 07:48:31;;;;;;;;;;;4.60;99.90;;;;;;5115448;27;19928;-70
2021/03/22 07:51:00;;;;;;;;;;;4.70;99.90;;;;;;5115207;28;19994;-67
2021/03/22 07:53:29;;;;;;;;;;;4.60;99.90;;;;;;5115021;28;19931;-67
2021/03/22 07:55:55;;;;;;;;;;;4.70;99.90;;;;;;5114751;28;19927;-67
2021/03/22 07:58:28;;;;;;;;;;;4.80;99.90;;;;;;5114997;28;20407;-68
2021/03/22 08:01:00;;;;;;;;;;;4.90;99.90;;;;;;5115081;28;19931;-67
2021/03/22 08:03:29;;;;;;;;;;;4.90;99.90;;;;;;5114780;28;19924;-68
2021/03/22 08:06:06;;;;;;;;;;;5.00;99.90;;;;;;5114777;28;20400;-68
2021/03/22 08:08:36;;;;;;;;;;;5.10;99.90;;;;;;5114863;28;19924;-65
2021/03/22 08:11:07;;;;;;;;;;;5.10;99.90;;;;;;5114288;28;20032;-69
2021/03/22 08:13:38;;;;;;;;;;;5.10;99.90;;;;;;5114554;28;19971;-67
2021/03/22 08:16:14;;;;;;;;;;;5.20;99.90;;;;;;5114830;28;19923;-66
2021/03/22 08:18:44;;;;;;;;;;;5.20;99.90;;;;;;5114937;28;19945;-66
2021/03/22 08:21:12;;;;;;;;;;;5.20;99.90;;;;;;5113948;28;19924;-66
2021/03/22 08:23:43;;;;;;;;;;;5.20;99.90;;;;;;5113729;28;19935;-66
2021/03/22 08:26:12;;;;;;;;;;;5.20;99.90;;;;;;5114260;28;20000;-66
2021/03/22 08:28:40;;;;;;;;;;;5.30;99.90;;;;;;5114742;28;19923;-67
2021/03/22 08:31:09;;;;;;;;;;;5.40;99.90;;;;;;5113955;27;19931;-66
2021/03/22 08:33:38;;;;;;;;;;;5.30;99.90;;;;;;5113932;28;19931;-68
2021/03/22 08:36:15;;;;;;;;;;;5.30;99.90;;;;;;5114156;27;19928;-67
2021/03/22 08:38:46;;;;;;;;;;;5.30;99.90;;;;;;5114331;28;19953;-68
2021/03/22 08:41:21;;;;;;;;;;;5.30;99.90;;;;;;5114562;28;19935;-69
2021/03/22 08:43:49;;;;;;;;;;;5.40;99.90;;;;;;5115030;28;19935;-70
2021/03/22 08:46:25;;;;;;;;;;;5.60;99.90;;;;;;5115605;28;20307;-73
2021/03/22 08:48:51;;;;;;;;;;;5.70;99.90;;;;;;5115798;28;19924;-71
2021/03/22 08:51:21;;;;;;;;;;;5.70;99.90;;;;;;5116860;28;19924;-70
2021/03/22 08:53:48;;;;;;;;;;;5.70;99.90;;;;;;5115525;28;19935;-70
2021/03/22 08:56:23;;;;;;;;;;;5.80;99.90;;;;;;5114689;28;20289;-69
2021/03/22 08:58:50;;;;;;;;;;;5.80;99.90;;;;;;5116691;28;19985;-67
2021/03/22 09:01:18;;;;;;;;;;;5.70;99.90;;;;;;5117340;28;19931;-67
2021/03/22 09:03:44;;;;;;;;;;;5.70;99.90;;;;;;5114818;28;19977;-67
2021/03/22 09:06:17;;;;;;;;;;;5.80;99.90;;;;;;5113530;28;20409;-70
2021/03/22 09:08:58;;;;;;;;;;;5.70;99.90;;;;;;5113796;28;20269;-71
2021/03/22 09:11:28;;;;;;;;;;;5.80;99.90;;;;;;5113057;28;19973;-69
2021/03/22 09:13:56;;;;;;;;;;;5.90;99.90;;;;;;5113743;27;19928;-70
2021/03/22 09:16:37;;;;;;;;;;;6.00;99.90;;;;;;5114510;28;20440;-67
2021/03/22 09:19:05;;;;;;;;;;;6.00;99.90;;;;;;5114326;28;19990;-69
2021/03/22 09:21:32;;;;;;;;;;;6.10;99.90;;;;;;5114017;28;19931;-68
2021/03/22 09:23:58;;;;;;;;;;;6.10;99.90;;;;;;5113186;28;19924;-69
2021/03/22 09:26:39;;;;;;;;;;;6.30;99.90;;;;;;5113657;28;20415;-68
2021/03/22 09:29:24;;;;;;;;;;;6.20;99.90;;;;;;5114098;28;19923;-68
2021/03/22 09:31:51;;;;;;;;;;;6.30;99.90;;;;;;5113760;28;20380;-68
2021/03/22 09:34:35;;;;;;;;;;;6.30;99.90;;;;;;5112637;28;20366;-69
2021/03/22 09:37:16;;;;;;;;;;;6.50;99.90;;;;;;5113701;28;19975;-67
2021/03/22 09:39:47;;;;;;;;;;;6.50;99.90;;;;;;5113548;28;19949;-69
2021/03/22 09:42:17;;;;;;;;;;;6.40;99.90;;;;;;5113647;27;19923;-70
2021/03/22 09:45:02;;;;;;;;;;;6.30;99.90;;;;;;5112872;28;19971;-69
2021/03/22 09:47:31;;;;;;;;;;;6.20;99.90;;;;;;5113149;28;19938;-69
2021/03/22 09:50:15;;;;;;;;;;;6.20;99.90;;;;;;5112662;28;20008;-70
2021/03/22 09:53:01;;;;;;;;;;;6.20;99.90;;;;;;5112435;28;19969;-68
2021/03/22 09:55:39;;;;;;;;;;;6.10;99.90;;;;;;5112698;28;19928;-68
2021/03/22 09:58:18;;;;;;;;;;;6.20;99.90;;;;;;5112974;28;19969;-67
2021/03/22 10:00:52;;;;;;;;;;;6.20;99.90;;;;;;5112451;28;20313;-65
2021/03/22 10:03:30;;;;;;;;;;;6.30;99.90;;;;;;5112054;28;19982;-67
2021/03/22 10:05:57;;;;;;;;;;;6.40;99.90;;;;;;5112869;28;19924;-69
2021/03/22 10:08:25;;;;;;;;;;;6.40;99.90;;;;;;5112901;28;19924;-68
2021/03/22 10:10:52;;;;;;;;;;;6.20;99.90;;;;;;5112697;28;20299;-67
2021/03/22 10:13:19;;;;;;;;;;;6.30;99.90;;;;;;5111773;28;20312;-68
2021/03/22 10:15:48;;;;;;;;;;;6.40;99.90;;;;;;5112530;28;19923;-67
2021/03/22 10:18:19;;;;;;;;;;;6.50;99.90;;;;;;5112189;28;19935;-70
2021/03/22 10:20:46;;;;;;;;;;;6.70;99.90;;;;;;5112684;28;19923;-70
2021/03/22 10:23:17;;;;;;;;;;;6.90;99.90;;;;;;5112193;28;19985;-68
2021/03/22 10:25:44;;;;;;;;;;;6.80;99.90;;;;;;5112182;28;19963;-69
2021/03/22 10:28:16;;;;;;;;;;;6.90;99.90;;;;;;5112592;28;19928;-68
2021/03/22 10:30:51;;;;;;;;;;;6.80;99.90;;;;;;5112103;28;19927;-69
2021/03/22 10:33:18;;;;;;;;;;;6.80;99.90;;;;;;5112041;28;19928;-69
2021/03/22 10:35:46;;;;;;;;;;;6.90;99.90;;;;;;5112362;28;19924;-69
2021/03/22 10:38:15;;;;;;;;;;;7.00;99.90;;;;;;5112303;28;20524;-68
2021/03/22 10:40:41;;;;;;;;;;;7.00;99.90;;;;;;5112106;28;19931;-69
2021/03/22 10:43:21;;;;;;;;;;;7.00;99.90;;;;;;5111215;28;19924;-68
2021/03/22 10:45:47;;;;;;;;;;;7.10;99.90;;;;;;5113183;28;19928;-69
2021/03/22 10:48:31;;;;;;;;;;;7.00;99.90;;;;;;5116402;28;20328;-68
2021/03/22 10:51:11;;;;;;;;;;;7.00;99.90;;;;;;5116434;27;19934;-69
2021/03/22 10:53:52;;;;;;;;;;;7.10;99.90;;;;;;5115380;28;20700;-71
2021/03/22 10:56:20;;;;;;;;;;;7.20;99.90;;;;;;5116500;28;20300;-67
2021/03/22 10:58:46;;;;;;;;;;;7.40;99.90;;;;;;5116570;28;19981;-67
2021/03/22 11:01:13;;;;;;;;;;;7.40;99.90;;;;;;5115890;28;19927;-67
2021/03/22 11:03:39;;;;;;;;;;;7.50;99.90;;;;;;5115530;28;19923;-67
2021/03/22 11:06:09;;;;;;;;;;;7.60;99.90;;;;;;5115762;28;19930;-70
2021/03/22 11:08:37;;;;;;;;;;;7.50;99.90;;;;;;5116562;28;19924;-69
2021/03/22 11:11:05;;;;;;;;;;;7.50;99.90;;;;;;5115914;28;19924;-69
2021/03/22 11:13:33;;;;;;;;;;;7.40;99.90;;;;;;5115246;28;20094;-67
2021/03/22 11:15:59;;;;;;;;;;;7.30;99.90;;;;;;5116357;27;19924;-68
2021/03/22 11:18:25;;;;;;;;;;;7.40;99.90;;;;;;5116404;28;19931;-69
2021/03/22 11:20:53;;;;;;;;;;;7.40;99.90;;;;;;5116820;28;19930;-68
2021/03/22 11:23:26;;;;;;;;;;;7.50;99.90;;;;;;5112421;28;19932;-67
2021/03/22 11:25:53;;;;;;;;;;;7.50;99.90;;;;;;5114180;27;20466;-67
2021/03/22 11:28:31;;;;;;;;;;;7.50;99.90;;;;;;5115782;28;19924;-68
2021/03/22 11:30:58;;;;;;;;;;;7.50;99.90;;;;;;5115299;28;19927;-67
2021/03/22 11:33:26;;;;;;;;;;;7.50;99.90;;;;;;5114953;28;19923;-68
2021/03/22 11:36:02;;;;;;;;;;;7.50;99.90;;;;;;5114712;28;19931;-67
2021/03/22 11:38:31;;;;;;;;;;;7.50;99.90;;;;;;5115386;28;19924;-68
2021/03/22 11:40:57;;;;;;;;;;;7.50;99.90;;;;;;5115228;28;20297;-69
2021/03/22 11:43:26;;;;;;;;;;;7.50;99.90;;;;;;5114642;28;20372;-67
2021/03/22 11:45:53;;;;;;;;;;;7.30;99.90;;;;;;5115400;28;19993;-68
2021/03/22 11:48:30;;;;;;;;;;;7.50;99.90;;;;;;5113779;28;19931;-69
2021/03/22 11:51:01;;;;;;;;;;;7.50;99.90;;;;;;5113467;28;19924;-69
2021/03/22 11:53:29;;;;;;;;;;;7.70;99.90;;;;;;5114412;27;19973;-69
2021/03/22 11:55:55;;;;;;;;;;;8.20;99.90;;;;;;5114911;28;19935;-66
2021/03/22 11:58:29;;;;;;;;;;;8.00;99.90;;;;;;5114274;28;19924;-68
2021/03/22 12:01:10;;;;;;;;;;;8.30;99.90;;;;;;5114958;28;19923;-70
2021/03/22 12:03:36;;;;;;;;;;;8.40;99.90;;;;;;5114271;28;19928;-68
2021/03/22 12:06:03;;;;;;;;;;;8.80;99.90;;;;;;5114815;28;19928;-69
2021/03/22 12:08:34;;;;;;;;;;;8.90;99.90;;;;;;5114709;28;19924;-68
2021/03/22 12:11:00;;;;;;;;;;;8.60;99.90;;;;;;5114963;28;20296;-69
2021/03/22 12:13:26;;;;;;;;;;;8.70;99.90;;;;;;5114038;28;20376;-70
2021/03/22 12:15:52;;;;;;;;;;;8.60;99.90;;;;;;5114984;28;20007;-70
2021/03/22 12:18:20;;;;;;;;;;;8.10;99.90;;;;;;5114617;28;19931;-70
2021/03/22 12:20:46;;;;;;;;;;;8.20;99.90;;;;;;5114474;28;19931;-70
2021/03/22 12:23:12;;;;;;;;;;;8.20;99.90;;;;;;5113567;28;19935;-69
2021/03/22 12:25:38;;;;;;;;;;;8.00;99.90;;;;;;5114479;28;19923;-69
2021/03/22 12:28:05;;;;;;;;;;;7.70;99.90;;;;;;5114585;28;19976;-68
2021/03/22 12:30:33;;;;;;;;;;;7.50;99.90;;;;;;5114626;28;19924;-67
2021/03/22 12:32:59;;;;;;;;;;;7.50;99.90;;;;;;5114001;28;19924;-66
2021/03/22 12:35:28;;;;;;;;;;;7.30;99.90;;;;;;5094777;28;19924;-66
2021/03/22 12:37:54;;;;;;;;;;;7.20;99.90;;;;;;5093675;28;19951;-66
2021/03/22 12:40:20;;;;;;;;;;;7.30;99.90;;;;;;5093833;28;19992;-68
2021/03/22 12:42:47;;;;;;;;;;;7.50;99.90;;;;;;5093311;28;19924;-71
2021/03/22 12:45:17;;;;;;;;;;;7.50;99.90;;;;;;5093710;28;20474;-70
2021/03/22 12:47:43;;;;;;;;;;;7.60;99.90;;;;;;5093559;28;19925;-66
2021/03/22 12:50:14;;;;;;;;;;;7.50;99.90;;;;;;5093269;28;19931;-68
2021/03/22 12:52:41;;;;;;;;;;;7.70;99.90;;;;;;5099136;28;19925;-68
2021/03/22 12:55:08;;;;;;;;;;;7.80;99.90;;;;;;5094060;28;19950;-67
2021/03/22 12:57:34;;;;;;;;;;;7.90;99.90;;;;;;5093815;28;19978;-68
2021/03/22 13:00:00;;;;;;;;;;;8.10;99.90;;;;;;5093538;28;19924;-68
2021/03/22 13:02:28;;;;;;;;;;;8.10;99.90;;;;;;5094173;28;19924;-67
2021/03/22 13:04:54;;;;;;;;;;;8.20;99.90;;;;;;5098130;28;19927;-67
2021/03/22 13:07:20;;;;;;;;;;;8.20;99.90;;;;;;5096258;28;19924;-69
2021/03/22 13:09:47;;;;;;;;;;;8.10;99.90;;;;;;5111496;28;19931;-69
2021/03/22 13:12:22;;;;;;;;;;;8.20;99.90;;;;;;5114627;28;19947;-68
2021/03/22 13:14:49;;;;;;;;;;;8.10;99.90;;;;;;5114444;28;19924;-63
2021/03/22 13:17:15;;;;;;;;;;;8.20;99.90;;;;;;5113540;28;19946;-65
2021/03/22 13:19:42;;;;;;;;;;;8.20;99.90;;;;;;5113979;28;20428;-66
2021/03/22 13:22:08;;;;;;;;;;;8.30;99.90;;;;;;5113483;28;19969;-65
2021/03/22 13:24:35;;;;;;;;;;;8.20;99.90;;;;;;5113531;28;19968;-64
2021/03/22 13:27:02;;;;;;;;;;;8.20;99.90;;;;;;5113694;28;19923;-65
2021/03/22 13:29:28;;;;;;;;;;;8.20;99.90;;;;;;5113101;28;20403;-66
2021/03/22 13:31:54;;;;;;;;;;;8.10;99.90;;;;;;5113079;28;20384;-65
2021/03/22 13:34:21;;;;;;;;;;;8.00;99.90;;;;;;5113878;28;19924;-68
2021/03/22 13:36:47;;;;;;;;;;;7.90;99.90;;;;;;5113221;28;19928;-68
2021/03/22 13:39:14;;;;;;;;;;;7.80;99.90;;;;;;5113491;28;19924;-67
2021/03/22 13:41:43;;;;;;;;;;;7.70;99.90;;;;;;5112451;28;19923;-68
2021/03/22 13:44:11;;;;;;;;;;;7.70;99.90;;;;;;5112772;28;20053;-66
2021/03/22 13:46:37;;;;;;;;;;;7.70;99.90;;;;;;5113337;28;19973;-68
2021/03/22 13:49:03;;;;;;;;;;;7.70;99.90;;;;;;5113213;28;20383;-67
2021/03/22 13:51:31;;;;;;;;;;;7.70;99.90;;;;;;5113002;28;19928;-63
2021/03/22 13:53:58;;;;;;;;;;;7.60;99.90;;;;;;5113226;28;19928;-65
2021/03/22 13:56:24;;;;;;;;;;;7.60;99.90;;;;;;5113564;28;19931;-65
2021/03/22 13:58:50;;;;;;;;;;;7.50;99.90;;;;;;5113592;28;19924;-67
2021/03/22 14:01:17;;;;;;;;;;;7.50;99.90;;;;;;5113425;28;19927;-66
2021/03/22 14:03:44;;;;;;;;;;;7.60;99.90;;;;;;5112566;28;20300;-66
2021/03/22 14:06:10;;;;;;;;;;;7.60;99.90;;;;;;5112881;28;19931;-67
2021/03/22 14:08:36;;;;;;;;;;;7.70;99.90;;;;;;5112563;28;20005;-68
2021/03/22 14:11:02;;;;;;;;;;;7.80;99.90;;;;;;5112434;28;19924;-68
2021/03/22 14:13:28;;;;;;;;;;;7.90;99.90;;;;;;5111917;28;19924;-67
2021/03/22 14:15:54;;;;;;;;;;;8.00;99.90;;;;;;5112983;28;19949;-69
2021/03/22 14:18:22;;;;;;;;;;;8.00;99.90;;;;;;5112462;28;19950;-64
2021/03/22 14:20:49;;;;;;;;;;;8.10;99.90;;;;;;5112257;28;19924;-63
2021/03/22 14:23:16;;;;;;;;;;;7.90;99.90;;;;;;5111919;28;20380;-65
2021/03/22 14:25:42;;;;;;;;;;;7.90;99.90;;;;;;5112639;28;19931;-64
2021/03/22 14:28:09;;;;;;;;;;;7.90;99.90;;;;;;5112392;28;19924;-63
2021/03/22 14:30:36;;;;;;;;;;;8.00;99.90;;;;;;5112353;28;19934;-64
2021/03/22 14:33:03;;;;;;;;;;;8.10;99.90;;;;;;5112355;28;19924;-64
2021/03/22 14:35:30;;;;;;;;;;;8.20;99.90;;;;;;5111085;28;20319;-64
2021/03/22 14:37:57;;;;;;;;;;;8.20;99.90;;;;;;5112718;28;19924;-63
2021/03/22 14:40:23;;;;;;;;;;;8.20;99.90;;;;;;5113630;28;19969;-67